createdAt,value
2017-05-17T08:09:27.519Z,50.87
2017-05-17T08:10:31.107Z,51.22
2017-05-17T08:11:28.725Z,51.14
2017-05-17T08:12:26.112Z,50.99
2017-05-17T08:13:23.510Z,51.00
2017-05-17T08:14:20.918Z,50.93
2017-05-17T08:15:18.304Z,51.03
2017-05-17T08:16:15.674Z,50.88
2017-05-17T08:17:13.034Z,50.87
2017-05-17T08:18:10.364Z,50.85
2017-05-17T08:19:07.720Z,50.79
2017-05-17T08:20:05.075Z,50.79
2017-05-17T08:21:02.461Z,50.70
2017-05-17T08:21:59.806Z,50.68
2017-05-17T08:22:57.187Z,50.61
2017-05-17T08:23:54.537Z,50.61
2017-05-17T08:24:51.928Z,50.56
2017-05-17T08:25:49.327Z,50.51
2017-05-17T08:26:46.690Z,50.45
2017-05-17T08:27:44.063Z,50.42
2017-05-17T08:28:41.411Z,50.47
2017-05-17T08:29:38.785Z,50.35
2017-05-17T08:30:36.159Z,50.34
2017-05-17T08:31:33.561Z,50.30
2017-05-17T08:32:30.933Z,50.30
2017-05-17T08:33:28.301Z,50.20
2017-05-17T08:34:25.669Z,50.19
2017-05-17T08:35:23.052Z,50.17
2017-05-17T08:36:20.437Z,50.10
2017-05-17T08:37:17.809Z,50.08
2017-05-17T08:38:15.212Z,50.04
2017-05-17T08:39:12.598Z,50.04
2017-05-17T08:40:09.980Z,49.98
2017-05-17T08:41:07.344Z,49.97
2017-05-17T08:42:04.683Z,49.92
2017-05-17T08:43:02.042Z,49.85
2017-05-17T08:43:59.403Z,49.83
2017-05-17T08:44:56.772Z,49.80
2017-05-17T08:45:54.123Z,49.79
2017-05-17T08:46:51.470Z,49.73
2017-05-17T08:47:48.801Z,49.72
2017-05-17T08:48:46.173Z,49.66
2017-05-17T08:49:43.517Z,49.62
2017-05-17T08:50:40.869Z,49.60
2017-05-17T08:51:38.208Z,49.57
2017-05-17T08:52:35.579Z,49.55
2017-05-17T08:53:32.946Z,49.48
2017-05-17T08:54:30.323Z,49.45
2017-05-17T08:55:27.726Z,49.41
2017-05-17T08:56:25.095Z,49.37
2017-05-17T08:57:22.432Z,49.33
2017-05-17T08:58:19.800Z,49.30
2017-05-17T08:59:17.186Z,49.23
2017-05-17T09:00:14.574Z,49.21
2017-05-17T09:01:11.952Z,49.16
2017-05-17T09:02:09.287Z,49.16
2017-05-17T09:03:06.659Z,49.13
2017-05-17T09:04:04.062Z,49.10
2017-05-17T09:05:01.469Z,49.05
2017-05-17T09:05:58.867Z,48.98
2017-05-17T09:06:56.226Z,48.96
2017-05-17T09:07:53.596Z,48.95
2017-05-17T09:08:50.982Z,48.88
2017-05-17T09:09:48.359Z,48.83
2017-05-17T09:10:45.755Z,48.78
2017-05-17T09:11:43.130Z,48.81
2017-05-17T09:12:40.529Z,48.79
2017-05-17T09:13:37.890Z,48.74
2017-05-17T09:14:35.221Z,48.72
2017-05-17T09:15:32.592Z,48.65
2017-05-17T09:16:29.947Z,48.59
2017-05-17T09:17:27.304Z,48.65
2017-05-17T09:18:24.681Z,48.63
2017-05-17T09:19:22.040Z,48.56
2017-05-17T09:20:19.356Z,48.50
2017-05-17T09:21:16.727Z,48.48
2017-05-17T09:22:14.085Z,48.45
2017-05-17T09:23:11.405Z,48.46
2017-05-17T09:24:08.793Z,48.35
2017-05-17T09:25:06.146Z,48.36
2017-05-17T09:26:03.499Z,48.31
2017-05-17T09:27:00.867Z,48.33
2017-05-17T09:27:58.213Z,48.28
2017-05-17T09:28:55.587Z,48.24
2017-05-17T09:29:52.951Z,48.23
2017-05-17T09:30:50.330Z,48.27
2017-05-17T09:31:47.719Z,48.19
2017-05-17T09:32:45.096Z,48.17
2017-05-17T09:33:42.497Z,48.12
2017-05-17T09:34:39.882Z,48.13
2017-05-17T09:35:37.248Z,48.15
2017-05-17T09:36:34.633Z,48.05
2017-05-17T09:37:31.989Z,48.04
2017-05-17T09:38:29.348Z,48.07
2017-05-17T09:39:26.694Z,48.03
2017-05-17T09:40:24.054Z,48.01
2017-05-17T09:41:21.428Z,47.95
2017-05-17T09:42:18.857Z,47.97
2017-05-17T09:43:16.229Z,47.88
2017-05-17T09:44:13.606Z,47.86
2017-05-17T09:45:10.942Z,47.95
2017-05-17T09:46:08.319Z,47.87
2017-05-17T09:47:05.719Z,47.91
2017-05-17T09:48:03.095Z,47.79
2017-05-17T09:49:00.456Z,47.82
2017-05-17T09:49:57.820Z,47.81
2017-05-17T09:50:55.732Z,47.81
2017-05-17T09:51:53.088Z,47.82
2017-05-17T09:52:50.488Z,47.72
2017-05-17T09:53:47.839Z,47.79
2017-05-17T09:54:45.208Z,47.63
2017-05-17T09:55:42.583Z,47.64
2017-05-17T09:56:40.071Z,47.66
2017-05-17T09:57:37.451Z,47.64
2017-05-17T09:58:34.842Z,47.70
2017-05-17T09:59:32.223Z,47.62
2017-05-17T10:00:29.597Z,47.68
2017-05-17T10:01:26.973Z,47.55
2017-05-17T10:02:24.371Z,47.69
2017-05-17T10:03:21.747Z,47.57
2017-05-17T10:04:19.122Z,47.62
2017-05-17T10:05:16.469Z,47.62
2017-05-17T10:06:13.852Z,47.64
2017-05-17T10:07:11.228Z,47.61
2017-05-17T10:08:08.581Z,47.62
2017-05-17T10:09:05.961Z,47.62
2017-05-17T10:10:03.358Z,47.54
2017-05-17T10:11:00.734Z,47.55
2017-05-17T10:11:58.115Z,47.51
2017-05-17T10:12:55.489Z,47.52
2017-05-17T10:13:52.852Z,47.66
2017-05-17T10:14:50.212Z,47.66
2017-05-17T10:15:47.624Z,47.67
2017-05-17T10:16:44.956Z,47.55
2017-05-17T10:17:42.279Z,47.56
2017-05-17T10:18:39.664Z,47.58
2017-05-17T10:19:37.023Z,47.41
2017-05-17T10:20:34.397Z,47.65
2017-05-17T10:21:31.790Z,47.45
2017-05-17T10:22:29.140Z,47.47
2017-05-17T10:23:26.469Z,47.53
2017-05-17T10:24:23.812Z,47.61
2017-05-17T10:25:21.159Z,47.50
2017-05-17T10:26:18.488Z,47.49
2017-05-17T10:27:15.895Z,47.52
2017-05-17T10:28:13.252Z,47.51
2017-05-17T10:29:10.602Z,47.51
2017-05-17T10:30:07.979Z,47.46
2017-05-17T10:31:05.337Z,47.46
2017-05-17T10:32:02.722Z,47.50
2017-05-17T10:33:00.128Z,47.39
2017-05-17T10:33:57.504Z,47.59
2017-05-17T10:34:54.864Z,47.54
2017-05-17T10:35:52.219Z,47.50
2017-05-17T10:36:49.600Z,47.40
2017-05-17T10:37:46.981Z,47.48
2017-05-17T10:38:44.486Z,47.45
2017-05-17T10:39:41.834Z,47.46
2017-05-17T10:40:39.218Z,47.45
2017-05-17T10:41:36.591Z,47.35
2017-05-17T10:42:33.984Z,47.53
2017-05-17T10:43:31.346Z,47.42
2017-05-17T10:44:28.744Z,47.30
2017-05-17T10:45:26.119Z,47.36
2017-05-17T10:46:23.460Z,47.36
2017-05-17T10:47:20.840Z,47.43
2017-05-17T10:48:18.217Z,47.42
2017-05-17T10:49:15.613Z,47.36
2017-05-17T10:50:13.024Z,47.37
2017-05-17T10:51:10.414Z,47.39
2017-05-17T10:52:07.762Z,47.40
2017-05-17T10:53:05.144Z,47.33
2017-05-17T10:54:02.487Z,47.38
2017-05-17T10:54:59.884Z,47.34
2017-05-17T10:55:57.275Z,47.30
2017-05-17T10:56:54.672Z,47.34
2017-05-17T10:57:52.057Z,47.30
2017-05-17T10:58:49.425Z,47.39
2017-05-17T10:59:46.821Z,47.28
2017-05-17T11:00:44.219Z,47.33
2017-05-17T11:01:41.635Z,47.21
2017-05-17T11:02:39.048Z,47.19
2017-05-17T11:03:36.391Z,47.29
2017-05-17T11:04:33.804Z,47.29
2017-05-17T11:05:31.180Z,47.33
2017-05-17T11:06:28.540Z,47.08
2017-05-17T11:07:25.887Z,47.10
2017-05-17T11:08:23.268Z,47.20
2017-05-17T11:09:20.643Z,47.24
2017-05-17T11:10:18.012Z,47.24
2017-05-17T11:11:15.377Z,47.20
2017-05-17T11:12:12.730Z,47.11
2017-05-17T11:13:10.120Z,47.20
2017-05-17T11:14:07.536Z,47.16
2017-05-17T11:15:04.911Z,47.29
2017-05-17T11:16:02.292Z,47.19
2017-05-17T11:16:59.660Z,47.24
2017-05-17T11:17:57.037Z,47.21
2017-05-17T11:18:54.438Z,47.17
2017-05-17T11:19:51.799Z,47.08
2017-05-17T11:20:49.149Z,46.99
2017-05-17T11:21:46.519Z,47.16
2017-05-17T11:22:43.882Z,47.09
2017-05-17T11:23:41.248Z,47.09
2017-05-17T11:24:38.639Z,46.88
2017-05-17T11:25:36.002Z,47.07
2017-05-17T11:26:33.361Z,47.07
2017-05-17T11:27:30.727Z,46.90
2017-05-17T11:28:28.099Z,46.94
2017-05-17T11:29:25.463Z,46.95
2017-05-17T11:30:22.841Z,46.94
2017-05-17T11:31:20.207Z,46.96
2017-05-17T11:32:17.561Z,47.02
2017-05-17T11:33:14.938Z,46.97
2017-05-17T11:34:12.286Z,47.01
2017-05-17T11:35:09.660Z,46.91
2017-05-17T11:36:07.057Z,46.85
2017-05-17T11:37:04.403Z,46.75
2017-05-17T11:38:01.800Z,46.92
2017-05-17T11:38:59.130Z,46.96
2017-05-17T11:39:56.484Z,46.83
2017-05-17T11:40:53.850Z,46.93
2017-05-17T11:41:51.243Z,46.86
2017-05-17T11:42:48.622Z,46.82
2017-05-17T11:43:45.988Z,46.79
2017-05-17T11:44:43.367Z,46.88
2017-05-17T11:45:40.708Z,46.72
2017-05-17T11:46:38.063Z,46.64
2017-05-17T11:47:35.491Z,46.53
2017-05-17T11:48:32.870Z,46.55
2017-05-17T11:49:30.249Z,46.45
2017-05-17T11:50:27.590Z,46.43
2017-05-17T11:51:24.945Z,46.55
2017-05-17T11:52:22.314Z,46.64
2017-05-17T11:53:19.710Z,46.30
2017-05-17T11:54:17.070Z,46.33
2017-05-17T11:55:14.438Z,46.26
2017-05-17T11:56:11.787Z,46.69
2017-05-17T11:57:09.298Z,46.58
2017-05-17T11:58:06.659Z,46.40
2017-05-17T11:59:04.055Z,46.15
2017-05-17T12:00:01.380Z,46.49
2017-05-17T12:00:58.723Z,46.48
2017-05-17T12:01:56.065Z,46.37
2017-05-17T12:02:53.438Z,46.36
2017-05-17T12:03:50.781Z,46.38
2017-05-17T12:04:48.165Z,46.32
2017-05-17T12:05:45.507Z,46.31
2017-05-17T12:06:42.858Z,45.98
2017-05-17T12:07:40.230Z,46.02
2017-05-17T12:08:37.611Z,46.04
2017-05-17T12:09:34.973Z,45.88
2017-05-17T12:10:32.358Z,45.78
2017-05-17T12:11:29.729Z,45.97
2017-05-17T12:12:27.089Z,45.81
2017-05-17T12:13:24.461Z,45.74
2017-05-17T12:14:21.805Z,46.12
2017-05-17T12:15:19.174Z,45.77
2017-05-17T12:16:16.579Z,45.80
2017-05-17T12:17:13.953Z,45.70
2017-05-17T12:18:11.327Z,46.06
2017-05-17T12:19:08.708Z,45.63
2017-05-17T12:20:06.094Z,45.63
2017-05-17T12:21:03.475Z,45.74
2017-05-17T12:22:00.889Z,45.92
2017-05-17T12:22:58.263Z,46.05
2017-05-17T12:23:55.648Z,45.74
2017-05-17T12:24:53.018Z,45.58
2017-05-17T12:25:50.349Z,45.65
2017-05-17T12:26:47.711Z,45.66
2017-05-17T12:27:45.091Z,45.55
2017-05-17T12:28:42.462Z,45.75
2017-05-17T12:29:39.812Z,45.94
2017-05-17T12:30:37.159Z,45.67
2017-05-17T12:31:34.486Z,45.41
2017-05-17T12:32:31.826Z,45.49
2017-05-17T12:33:29.211Z,45.46
2017-05-17T12:34:26.542Z,45.31
2017-05-17T12:35:23.865Z,45.78
2017-05-17T12:36:21.236Z,45.68
2017-05-17T12:37:18.647Z,45.65
2017-05-17T12:38:16.022Z,45.82
2017-05-17T12:39:13.415Z,45.32
2017-05-17T12:40:10.784Z,45.28
2017-05-17T12:41:08.163Z,45.31
2017-05-17T12:42:05.539Z,45.22
2017-05-17T12:43:02.923Z,45.30
2017-05-17T12:44:00.349Z,45.24
2017-05-17T12:44:57.736Z,45.60
2017-05-17T12:45:55.085Z,45.24
2017-05-17T12:46:52.462Z,45.33
2017-05-17T12:47:49.798Z,45.51
2017-05-17T12:48:47.174Z,45.27
2017-05-17T12:49:44.548Z,45.53
2017-05-17T12:50:41.953Z,45.33
2017-05-17T12:51:39.324Z,45.16
2017-05-17T12:52:36.721Z,45.09
2017-05-17T12:53:34.091Z,45.20
2017-05-17T12:54:31.451Z,45.53
2017-05-17T12:55:28.839Z,45.35
2017-05-17T12:56:26.232Z,45.36
2017-05-17T12:57:23.570Z,45.29
2017-05-17T12:58:20.904Z,45.24
2017-05-17T12:59:18.240Z,45.24
2017-05-17T13:00:15.557Z,45.47
2017-05-17T13:01:12.897Z,45.32
2017-05-17T13:02:10.249Z,45.50
2017-05-17T13:03:07.592Z,45.09
2017-05-17T13:04:11.907Z,45.16
2017-05-17T13:05:09.257Z,45.33
2017-05-17T13:06:06.618Z,45.24
2017-05-17T13:07:03.977Z,45.19
2017-05-17T13:08:01.376Z,45.14
2017-05-17T13:08:58.724Z,44.94
2017-05-17T13:09:56.069Z,45.09
2017-05-17T13:10:53.422Z,45.27
2017-05-17T13:11:50.787Z,45.02
2017-05-17T13:12:48.158Z,45.10
2017-05-17T13:13:45.505Z,44.95
2017-05-17T13:14:42.881Z,45.07
2017-05-17T13:15:40.268Z,44.97
2017-05-17T13:16:37.850Z,45.00
2017-05-17T13:17:35.203Z,44.91
2017-05-17T13:18:32.567Z,44.88
2017-05-17T13:19:29.966Z,45.01
2017-05-17T13:20:27.337Z,44.91
2017-05-17T13:21:24.708Z,44.75
2017-05-17T13:22:22.079Z,44.73
2017-05-17T13:23:19.446Z,44.77
2017-05-17T13:24:16.837Z,44.82
2017-05-17T13:25:14.243Z,44.80
2017-05-17T13:26:11.609Z,44.51
2017-05-17T13:27:08.995Z,44.63
2017-05-17T13:28:06.408Z,44.51
2017-05-17T13:29:03.784Z,45.33
2017-05-17T13:30:01.119Z,45.10
2017-05-17T13:30:58.521Z,44.07
2017-05-17T13:31:55.883Z,44.19
2017-05-17T13:32:53.244Z,44.19
2017-05-17T13:33:50.607Z,43.89
2017-05-17T14:41:55.426Z,46.23
2017-05-17T14:44:00.116Z,51.73
2017-05-17T14:44:58.792Z,49.50
2017-05-17T14:45:57.265Z,53.20
2017-05-17T14:46:55.890Z,50.43
2017-05-17T14:47:54.720Z,47.79
2017-05-17T14:48:53.227Z,47.73
2017-05-17T14:49:51.680Z,47.33
2017-05-17T14:50:50.271Z,49.37
2017-05-17T14:51:48.759Z,49.64
2017-05-17T14:52:47.640Z,50.29
2017-05-17T14:53:46.487Z,48.52
2017-05-17T14:54:45.198Z,50.03
2017-05-17T14:55:44.148Z,48.50
2017-05-17T14:56:42.703Z,47.89
2017-05-17T14:57:41.584Z,47.82
2017-05-17T14:58:40.279Z,49.18
2017-05-17T14:59:38.855Z,47.55
2017-05-17T15:00:37.426Z,48.33
2017-05-17T15:01:36.511Z,47.65
2017-05-17T15:02:34.901Z,48.26
2017-05-17T15:03:33.762Z,48.80
2017-05-17T15:04:32.234Z,47.52
2017-05-17T15:05:30.739Z,47.82
2017-05-17T15:06:29.569Z,47.84
2017-05-17T15:07:27.287Z,47.71
2017-05-17T15:08:24.912Z,48.12
2017-05-17T15:09:22.315Z,48.60
2017-05-17T15:10:19.697Z,49.21
2017-05-17T15:11:17.702Z,49.00
2017-05-17T15:12:15.198Z,49.02
2017-05-17T15:13:13.688Z,48.72
2017-05-17T15:14:11.065Z,48.98
2017-05-17T15:15:08.463Z,49.00
2017-05-17T15:16:05.904Z,48.84
2017-05-17T15:17:03.319Z,48.96
2017-05-17T15:18:00.683Z,49.24
2017-05-17T15:18:58.113Z,51.42
2017-05-17T15:19:56.090Z,51.46
2017-05-17T15:20:53.572Z,49.56
2017-05-17T15:21:51.101Z,49.82
2017-05-17T15:22:48.487Z,49.59
2017-05-17T15:23:45.942Z,49.10
2017-05-17T15:24:43.427Z,49.26
2017-05-17T15:25:40.882Z,49.61
2017-05-17T15:26:38.372Z,49.23
2017-05-17T15:27:35.829Z,49.27
2017-05-17T15:28:33.442Z,49.57
2017-05-17T15:29:30.839Z,49.64
2017-05-17T15:30:28.272Z,48.74
2017-05-17T15:31:25.702Z,48.45
2017-05-17T15:32:23.118Z,48.25
2017-05-17T15:33:20.523Z,48.39
2017-05-17T15:34:17.921Z,49.58
2017-05-17T15:35:15.310Z,49.12
2017-05-17T15:36:12.696Z,51.75
2017-05-17T15:37:10.104Z,50.11
2017-05-17T15:38:07.497Z,48.46
2017-05-17T15:39:04.927Z,48.61
2017-05-17T15:40:02.302Z,50.67
2017-05-17T15:41:01.258Z,48.80
2017-05-17T15:41:58.637Z,50.31
2017-05-17T15:42:55.990Z,48.71
2017-05-17T15:43:53.341Z,48.63
2017-05-17T15:44:50.801Z,48.64
2017-05-17T15:45:48.133Z,48.92
2017-05-17T15:46:45.571Z,47.77
2017-05-17T15:47:42.902Z,47.69
2017-05-17T15:48:40.269Z,47.65
2017-05-17T15:49:37.643Z,47.92
2017-05-17T15:50:35.019Z,50.27
2017-05-17T15:51:32.417Z,48.00
2017-05-17T15:52:29.794Z,51.45
2017-05-17T15:53:27.220Z,49.80
2017-05-17T15:54:24.585Z,50.74
2017-05-17T15:55:21.975Z,50.64
2017-05-17T15:56:19.394Z,50.71
2017-05-17T15:57:16.777Z,50.85
2017-05-17T15:58:14.291Z,50.12
2017-05-17T15:59:11.682Z,51.10
2017-05-17T16:00:09.115Z,50.79
2017-05-17T16:01:06.586Z,49.51
2017-05-17T16:02:03.968Z,49.76
2017-05-17T16:03:01.350Z,49.52
2017-05-17T16:03:58.715Z,50.45
2017-05-17T16:04:56.151Z,50.65
2017-05-17T16:05:53.533Z,48.50
2017-05-17T16:06:50.962Z,48.50
2017-05-17T16:07:48.355Z,49.70
2017-05-17T16:08:45.725Z,47.16
2017-05-17T16:09:43.103Z,47.45
2017-05-17T16:10:40.477Z,46.75
2017-05-17T16:11:37.840Z,48.16
2017-05-17T16:12:35.361Z,47.83
2017-05-17T16:13:32.794Z,47.88
2017-05-17T16:14:30.174Z,50.28
2017-05-17T16:15:27.550Z,48.15
2017-05-17T16:16:24.925Z,49.16
2017-05-17T16:17:22.290Z,49.13
2017-05-17T16:18:19.677Z,46.83
2017-05-17T16:19:17.068Z,46.19
2017-05-17T16:20:14.514Z,49.21
2017-05-17T16:21:11.946Z,46.72
2017-05-17T16:22:09.369Z,45.66
2017-05-17T16:23:06.738Z,46.36
2017-05-17T16:24:04.129Z,47.68
2017-05-17T16:25:01.661Z,46.12
2017-05-17T16:25:59.051Z,47.08
2017-05-17T16:26:56.439Z,45.49
2017-05-17T16:27:53.846Z,46.48
2017-05-17T16:28:51.212Z,45.70
2017-05-17T16:29:48.593Z,45.65
2017-05-17T16:30:46.028Z,45.36
2017-05-17T16:31:43.459Z,45.15
2017-05-17T16:32:40.844Z,45.26
2017-05-17T16:33:38.521Z,45.03
2017-05-17T16:34:35.906Z,44.93
2017-05-17T16:35:33.305Z,44.82
2017-05-17T16:36:30.762Z,44.76
2017-05-17T16:37:28.111Z,44.76
2017-05-17T16:38:25.508Z,44.66
2017-05-17T16:39:22.894Z,44.77
2017-05-17T16:40:20.271Z,44.33
2017-05-17T16:41:17.666Z,44.64
2017-05-17T16:42:15.050Z,44.66
2017-05-17T16:43:12.464Z,45.13
2017-05-17T16:44:09.906Z,44.82
2017-05-17T16:45:07.349Z,44.81
2017-05-17T16:46:04.759Z,44.68
2017-05-17T16:47:02.116Z,44.51
2017-05-17T16:47:59.573Z,44.49
2017-05-17T16:48:56.970Z,44.39
2017-05-17T16:49:54.465Z,44.42
2017-05-17T16:50:51.863Z,44.45
2017-05-17T16:51:49.290Z,44.36
2017-05-17T16:52:46.638Z,44.38
2017-05-17T16:53:44.023Z,44.46
2017-05-17T16:54:41.408Z,44.36
2017-05-17T16:55:38.792Z,44.36
2017-05-17T16:56:36.259Z,44.33
2017-05-17T16:57:33.650Z,44.27
2017-05-17T16:58:31.094Z,46.57
2017-05-17T16:59:28.490Z,44.74
2017-05-17T17:00:25.904Z,44.59
2017-05-17T17:01:23.275Z,44.46
2017-05-17T17:02:20.664Z,44.18
2017-05-17T17:03:18.050Z,48.44
2017-05-17T17:04:15.868Z,45.92
2017-05-17T17:05:13.425Z,44.85
2017-05-17T17:06:10.799Z,44.52
2017-05-17T17:07:08.196Z,44.50
2017-05-17T17:08:12.590Z,44.74
2017-05-17T17:09:09.938Z,44.46
2017-05-17T17:10:07.315Z,45.80
2017-05-17T17:11:04.703Z,44.52
2017-05-17T17:12:02.083Z,47.58
2017-05-17T17:12:59.463Z,45.19
2017-05-17T17:13:56.858Z,45.06
2017-05-17T17:14:54.252Z,44.99
2017-05-17T17:15:51.774Z,44.62
2017-05-17T17:16:49.195Z,44.54
2017-05-17T17:17:46.583Z,44.42
2017-05-17T17:18:43.990Z,44.21
2017-05-17T17:19:41.351Z,44.37
2017-05-17T17:20:38.774Z,44.24
2017-05-17T17:21:36.189Z,44.16
2017-05-17T17:22:33.721Z,44.11
2017-05-17T17:23:31.105Z,44.07
2017-05-17T17:24:28.531Z,43.88
2017-05-17T17:25:25.924Z,43.98
2017-05-17T17:26:23.307Z,43.89
2017-05-17T17:27:21.301Z,44.01
2017-05-17T17:28:18.710Z,44.07
2017-05-17T17:29:16.977Z,43.91
2017-05-17T17:30:14.386Z,44.04
2017-05-17T17:31:11.798Z,43.88
2017-05-17T17:32:09.295Z,44.00
2017-05-17T17:33:06.691Z,44.06
2017-05-17T17:34:04.083Z,44.07
2017-05-17T17:35:01.439Z,44.13
2017-05-17T17:35:58.864Z,44.16
2017-05-17T17:36:56.240Z,43.99
2017-05-17T17:37:53.624Z,44.09
2017-05-17T17:38:50.996Z,43.99
2017-05-17T17:39:48.508Z,43.94
2017-05-17T17:40:45.920Z,44.27
2017-05-17T17:41:43.348Z,44.23
2017-05-17T17:42:40.742Z,44.13
2017-05-17T17:43:38.107Z,44.25
2017-05-17T17:44:35.501Z,43.71
2017-05-17T17:45:33.055Z,43.92
2017-05-17T17:46:30.721Z,46.07
2017-05-17T17:47:28.088Z,44.78
2017-05-17T17:48:25.473Z,44.45
2017-05-17T17:49:22.844Z,44.23
2017-05-17T17:50:20.196Z,48.16
2017-05-17T17:51:17.584Z,44.62
2017-05-17T17:52:14.951Z,45.37
2017-05-17T17:53:12.323Z,46.98
2017-05-17T17:54:09.712Z,46.28
2017-05-17T17:55:07.079Z,46.63
2017-05-17T17:56:04.459Z,46.33
2017-05-17T17:57:01.848Z,45.87
2017-05-17T17:57:59.242Z,45.85
2017-05-17T17:58:56.629Z,44.94
2017-05-17T17:59:54.002Z,45.03
2017-05-17T18:00:51.409Z,45.85
2017-05-17T18:01:48.795Z,46.99
2017-05-17T18:02:46.261Z,46.48
2017-05-17T18:03:43.637Z,46.43
2017-05-17T18:04:41.027Z,45.35
2017-05-17T18:05:38.428Z,44.75
2017-05-17T18:06:35.817Z,46.40
2017-05-17T18:07:33.210Z,44.84
2017-05-17T18:08:30.610Z,45.09
2017-05-17T18:09:28.073Z,45.48
2017-05-17T18:10:25.456Z,46.48
2017-05-17T18:11:22.868Z,47.13
2017-05-17T18:12:20.234Z,44.84
2017-05-17T18:13:17.600Z,45.52
2017-05-17T18:14:14.983Z,46.58
2017-05-17T18:15:12.376Z,44.50
2017-05-17T18:16:09.760Z,45.45
2017-05-17T18:17:07.127Z,44.90
2017-05-17T18:18:04.481Z,44.97
2017-05-17T18:19:01.901Z,45.35
2017-05-17T18:19:59.275Z,45.01
2017-05-17T18:20:56.650Z,44.93
2017-05-17T18:21:54.024Z,45.27
2017-05-17T18:22:51.415Z,45.24
2017-05-17T18:23:48.794Z,45.30
2017-05-17T18:24:47.883Z,44.93
2017-05-17T18:25:45.307Z,44.91
2017-05-17T18:26:42.691Z,44.82
2017-05-17T18:27:40.093Z,44.80
2017-05-17T18:28:37.447Z,44.83
2017-05-17T18:29:34.859Z,44.73
2017-05-17T18:30:32.252Z,44.74
2017-05-17T18:31:30.679Z,44.64
2017-05-17T18:32:28.085Z,44.58
2017-05-17T18:33:25.517Z,45.64
2017-05-17T18:34:22.924Z,44.87
2017-05-17T18:35:20.309Z,45.08
2017-05-17T18:36:17.731Z,44.71
2017-05-17T18:37:15.152Z,44.65
2017-05-17T18:38:12.510Z,44.92
2017-05-17T18:39:09.893Z,44.70
2017-05-17T18:40:07.266Z,45.92
2017-05-17T18:41:04.638Z,45.45
2017-05-17T18:42:02.410Z,45.35
2017-05-17T18:42:59.876Z,45.00
2017-05-17T18:43:57.268Z,45.59
2017-05-17T18:44:54.647Z,45.44
2017-05-17T18:45:52.008Z,45.23
2017-05-17T18:46:49.393Z,44.44
2017-05-17T18:47:46.767Z,45.08
2017-05-17T18:48:44.158Z,45.21
2017-05-17T18:49:41.527Z,44.35
2017-05-17T18:50:38.890Z,44.47
2017-05-17T18:51:36.259Z,44.53
2017-05-17T18:52:34.214Z,44.50
2017-05-17T18:53:31.648Z,44.89
2017-05-17T18:54:29.041Z,44.65
2017-05-17T18:55:26.414Z,44.30
2017-05-17T18:56:23.767Z,46.62
2017-05-17T18:57:21.164Z,44.65
2017-05-17T18:58:18.548Z,45.14
2017-05-17T18:59:15.963Z,44.83
2017-05-17T19:00:13.353Z,46.02
2017-05-17T19:01:10.768Z,44.73
2017-05-17T19:02:08.146Z,45.62
2017-05-17T19:03:05.552Z,44.73
2017-05-17T19:04:02.920Z,45.89
2017-05-17T19:05:00.280Z,44.61
2017-05-17T19:05:57.679Z,44.57
2017-05-17T19:06:55.072Z,47.02
2017-05-17T19:07:52.445Z,44.68
2017-05-17T19:08:50.030Z,44.65
2017-05-17T19:09:47.405Z,44.66
2017-05-17T19:10:44.818Z,44.87
2017-05-17T19:11:42.558Z,47.31
2017-05-17T19:12:40.087Z,46.32
2017-05-17T19:13:37.518Z,45.10
2017-05-17T19:14:34.894Z,45.03
2017-05-17T19:15:32.308Z,45.15
2017-05-17T19:16:29.684Z,45.20
2017-05-17T19:17:27.231Z,45.23
2017-05-17T19:18:24.684Z,45.41
2017-05-17T19:19:22.074Z,45.60
2017-05-17T19:20:19.470Z,46.67
2017-05-17T19:21:16.844Z,46.14
2017-05-17T19:22:14.214Z,45.17
2017-05-17T19:23:11.592Z,45.53
2017-05-17T19:24:08.986Z,45.14
2017-05-17T19:25:06.343Z,45.70
2017-05-17T19:26:03.675Z,45.93
2017-05-17T19:27:01.054Z,45.67
2017-05-17T19:27:58.431Z,46.05
2017-05-17T19:28:56.004Z,46.08
2017-05-17T19:29:53.361Z,47.75
2017-05-17T19:30:50.817Z,48.84
